Time;durP1;ratioP1;P1;durP2;ratioP2;P2;SDS_P1;SDS_P2;PMS_P1;PMS_P2;Temp;Humidity;BMP_temperature;BMP_pressure;BME280_temperature;BME280_humidity;BME280_pressure;Samples;Min_cycle;Max_cycle;Signal;HPM_P1;HPM_P2
2021/09/12 00:00:21;;;;;;;10.57;9.50;;;;;;;16.18;100.00;98245.00;4961257;28;20725;-68
2021/09/12 00:02:49;;;;;;;10.57;9.77;;;;;;;16.26;100.00;98244.03;4993881;28;20541;-68
2021/09/12 00:05:18;;;;;;;11.47;10.47;;;;;;;16.28;100.00;98245.47;5003933;28;20602;-68
2021/09/12 00:07:46;;;;;;;11.60;10.50;;;;;;;16.36;100.00;98247.19;5000324;28;20243;-69
2021/09/12 00:10:15;;;;;;;11.63;10.63;;;;;;;16.29;100.00;98239.13;4999428;28;20212;-69
2021/09/12 00:12:43;;;;;;;10.40;9.50;;;;;;;16.37;100.00;98240.81;4994410;28;20212;-69
2021/09/12 00:15:13;;;;;;;11.07;10.17;;;;;;;16.40;100.00;98243.09;4961198;28;20395;-69
2021/09/12 00:17:44;;;;;;;10.60;9.70;;;;;;;16.28;100.00;98237.44;4990873;28;20221;-69
2021/09/12 00:20:12;;;;;;;10.40;9.47;;;;;;;16.18;100.00;98235.13;4995919;28;20271;-69
2021/09/12 00:22:40;;;;;;;10.90;9.90;;;;;;;16.17;100.00;98228.16;4993932;28;20235;-68
2021/09/12 00:25:10;;;;;;;9.73;8.87;;;;;;;16.14;100.00;98231.22;5000973;28;20573;-69
2021/09/12 00:27:38;;;;;;;8.57;7.87;;;;;;;16.11;100.00;98234.28;4997733;28;20228;-68
2021/09/12 00:30:07;;;;;;;8.97;8.37;;;;;;;16.01;100.00;98223.06;4998269;28;20213;-68
2021/09/12 00:32:35;;;;;;;9.70;8.90;;;;;;;16.05;100.00;98230.50;4957283;28;20224;-67
2021/09/12 00:35:06;;;;;;;9.20;8.50;;;;;;;16.01;100.00;98228.41;4995177;28;20589;-68
2021/09/12 00:37:34;;;;;;;9.27;8.57;;;;;;;16.01;100.00;98229.25;4992124;28;20708;-67
2021/09/12 00:40:02;;;;;;;8.90;8.30;;;;;;;15.97;100.00;98227.16;4994947;28;20738;-68
2021/09/12 00:42:30;;;;;;;9.77;9.03;;;;;;;15.98;100.00;98229.63;4991789;28;20224;-67
2021/09/12 00:44:58;;;;;;;10.73;9.77;;;;;;;15.96;100.00;98222.81;4998054;28;20701;-68
2021/09/12 00:47:26;;;;;;;10.63;9.63;;;;;;;15.98;100.00;98221.63;4958250;28;20717;-68
2021/09/12 00:49:54;;;;;;;10.73;9.83;;;;;;;15.98;100.00;98231.47;4991081;28;20201;-69
2021/09/12 00:52:24;;;;;;;10.53;9.63;;;;;;;16.01;100.00;98220.38;4993924;28;20205;-67
2021/09/12 00:54:52;;;;;;;9.77;9.00;;;;;;;15.98;100.00;98221.63;5001943;28;20848;-68
2021/09/12 00:57:20;;;;;;;10.10;9.20;;;;;;;16.00;100.00;98213.41;5002008;28;20225;-68
2021/09/12 00:59:49;;;;;;;10.70;9.80;;;;;;;15.93;100.00;98220.53;4997520;28;20209;-69
2021/09/12 01:02:19;;;;;;;10.30;9.50;;;;;;;15.82;100.00;98221.84;4956921;28;20550;-68
2021/09/12 01:04:47;;;;;;;10.00;9.10;;;;;;;15.84;100.00;98223.31;4989607;28;20577;-68
2021/09/12 01:07:15;;;;;;;9.40;8.50;;;;;;;15.85;100.00;98224.13;4998614;28;20248;-69
2021/09/12 01:09:44;;;;;;;9.73;8.93;;;;;;;15.75;100.00;98225.28;4998140;28;20682;-69
2021/09/12 01:12:13;;;;;;;8.93;8.13;;;;;;;15.69;100.00;98218.03;4994975;28;20699;-69
2021/09/12 01:14:41;;;;;;;8.63;7.93;;;;;;;15.87;100.00;98225.59;4993126;28;20215;-67
2021/09/12 01:17:09;;;;;;;8.77;8.13;;;;;;;15.95;100.00;98221.16;4963354;28;20240;-69
2021/09/12 01:19:37;;;;;;;10.27;8.47;;;;;;;15.89;100.00;98226.28;4996931;28;20704;-68
2021/09/12 01:22:07;;;;;;;8.10;7.50;;;;;;;15.85;100.00;98213.44;4961841;28;20417;-68
2021/09/12 01:24:37;;;;;;;9.80;8.93;;;;;;;15.84;100.00;98227.81;4986250;28;20216;-68
2021/09/12 01:27:06;;;;;;;9.63;8.83;;;;;;;15.82;100.00;98224.53;4992029;28;20248;-69
2021/09/12 01:29:34;;;;;;;8.33;7.63;;;;;;;15.80;100.00;98223.88;5001719;28;20208;-68
2021/09/12 01:32:02;;;;;;;8.83;8.03;;;;;;;15.83;100.00;98220.81;4989164;28;20461;-69
2021/09/12 01:34:30;;;;;;;8.97;8.37;;;;;;;15.75;100.00;98211.13;4995087;28;20219;-68
2021/09/12 01:36:58;;;;;;;9.13;8.43;;;;;;;15.80;100.00;98214.03;4964737;28;20231;-69
2021/09/12 01:39:26;;;;;;;9.63;8.93;;;;;;;15.70;100.00;98208.19;4989975;28;20216;-68
2021/09/12 01:41:55;;;;;;;9.80;9.00;;;;;;;15.68;100.00;98211.06;5002669;28;20251;-68
2021/09/12 01:44:24;;;;;;;8.83;8.13;;;;;;;15.70;100.00;98213.50;5005324;28;20215;-69
2021/09/12 01:46:53;;;;;;;9.30;8.50;;;;;;;15.69;100.00;98204.69;4989011;28;20236;-68
2021/09/12 01:49:23;;;;;;;9.27;8.57;;;;;;;15.66;100.00;98198.91;5003989;28;20669;-69
2021/09/12 01:51:51;;;;;;;10.07;9.20;;;;;;;15.68;100.00;98208.38;4999153;28;20411;-67
2021/09/12 01:54:19;;;;;;;9.27;8.57;;;;;;;15.62;100.00;98207.28;4964557;28;20212;-68
2021/09/12 01:56:48;;;;;;;9.50;8.73;;;;;;;15.62;100.00;98201.13;4986515;28;20247;-67
2021/09/12 01:59:17;;;;;;;9.17;8.47;;;;;;;15.62;100.00;98207.28;5003585;28;20211;-69
2021/09/12 02:01:45;;;;;;;10.23;9.37;;;;;;;15.63;100.00;98208.94;4989089;28;20217;-67
2021/09/12 02:04:14;;;;;;;10.97;9.90;;;;;;;15.69;100.00;98207.38;4999906;28;20205;-68
2021/09/12 02:06:42;;;;;;;10.03;9.23;;;;;;;15.59;100.00;98212.22;4998262;28;20421;-68
2021/09/12 02:09:09;;;;;;;10.83;9.73;;;;;;;15.57;100.00;98206.22;4967676;28;20380;-69
2021/09/12 02:11:37;;;;;;;9.70;8.80;;;;;;;15.60;100.00;98209.31;4986022;28;20545;-68
2021/09/12 02:14:05;;;;;;;10.30;9.30;;;;;;;15.60;100.00;98216.53;5003888;28;20213;-69
2021/09/12 02:16:35;;;;;;;10.57;9.67;;;;;;;15.62;100.00;98214.50;4988269;28;20715;-69
2021/09/12 02:19:03;;;;;;;11.93;10.87;;;;;;;15.57;100.00;98214.25;4998356;28;20582;-69
2021/09/12 02:21:30;;;;;;;12.00;10.87;;;;;;;15.61;100.00;98220.84;4996929;28;20419;-67
2021/09/12 02:23:58;;;;;;;12.10;10.83;;;;;;;15.64;100.00;98212.47;4966132;28;20701;-69
2021/09/12 02:26:26;;;;;;;10.90;10.00;;;;;;;15.56;100.00;98215.25;4988299;28;20205;-68
2021/09/12 02:28:54;;;;;;;11.27;10.20;;;;;;;15.61;100.00;98210.97;5000065;28;20204;-68
2021/09/12 02:31:23;;;;;;;12.43;11.43;;;;;;;15.59;100.00;98214.88;5003639;28;20254;-68
2021/09/12 02:33:52;;;;;;;12.13;10.90;;;;;;;15.72;100.00;98222.16;4993000;28;20299;-68
2021/09/12 02:36:20;;;;;;;11.00;10.03;;;;;;;15.79;100.00;98209.72;5002995;28;20572;-67
2021/09/12 02:38:48;;;;;;;10.57;9.57;;;;;;;15.82;100.00;98212.00;5001390;28;20545;-68
2021/09/12 02:41:16;;;;;;;11.43;9.40;;;;;;;15.84;100.00;98217.97;4962426;28;20217;-67
2021/09/12 02:43:44;;;;;;;9.63;8.70;;;;;;;15.69;100.00;98214.53;4988323;28;20339;-69
2021/09/12 02:46:12;;;;;;;11.43;10.53;;;;;;;15.67;100.00;98213.91;5001629;28;20213;-67
2021/09/12 02:48:40;;;;;;;9.90;8.93;;;;;;;15.64;100.00;98209.78;4988686;28;20456;-69
2021/09/12 02:51:10;;;;;;;9.83;8.93;;;;;;;15.72;100.00;98214.16;4998397;28;20220;-69
2021/09/12 02:53:37;;;;;;;9.10;8.47;;;;;;;15.71;100.00;98213.34;4996828;28;20359;-68
2021/09/12 02:56:06;;;;;;;9.50;8.80;;;;;;;15.75;100.00;98203.91;4963870;28;20228;-69
2021/09/12 02:58:34;;;;;;;8.73;8.13;;;;;;;15.70;100.00;98211.69;4983072;28;20546;-68
2021/09/12 03:01:01;;;;;;;8.83;8.13;;;;;;;15.74;100.00;98204.13;5001189;28;20236;-68
2021/09/12 03:03:30;;;;;;;9.33;8.53;;;;;;;15.81;100.00;98198.81;4999060;28;20356;-67
2021/09/12 03:05:58;;;;;;;9.20;8.40;;;;;;;15.73;100.00;98205.97;4986900;28;20205;-68
2021/09/12 03:08:27;;;;;;;8.50;7.70;;;;;;;15.73;100.00;98200.63;4997028;28;20235;-67
2021/09/12 03:10:55;;;;;;;8.43;7.77;;;;;;;15.68;100.00;98202.19;4962290;28;20213;-69
2021/09/12 03:13:23;;;;;;;9.70;8.80;;;;;;;15.73;100.00;98202.47;4983972;28;20205;-67
2021/09/12 03:15:51;;;;;;;10.80;9.87;;;;;;;15.62;100.00;98193.94;4996920;28;20243;-69
2021/09/12 03:18:19;;;;;;;9.70;9.00;;;;;;;15.58;100.00;98203.34;5001145;28;20224;-67
2021/09/12 03:20:47;;;;;;;9.20;8.50;;;;;;;15.57;100.00;98196.34;4987449;28;20212;-69
2021/09/12 03:23:15;;;;;;;8.37;7.57;;;;;;;15.49;100.00;98208.00;4997509;28;20705;-67
2021/09/12 03:25:45;;;;;;;8.80;8.10;;;;;;;15.42;100.00;98207.09;4994378;28;20427;-69
2021/09/12 03:28:12;;;;;;;8.97;8.17;;;;;;;15.37;100.00;98201.50;4966424;28;20928;-68
2021/09/12 03:30:41;;;;;;;8.30;7.70;;;;;;;15.32;100.00;98202.06;4961789;28;20217;-67
2021/09/12 03:33:09;;;;;;;9.40;8.47;;;;;;;15.27;100.00;98195.66;4993971;28;20212;-68
2021/09/12 03:35:37;;;;;;;8.43;7.83;;;;;;;15.21;100.00;98194.56;4994621;28;20212;-67
2021/09/12 03:38:05;;;;;;;8.90;8.10;;;;;;;15.25;100.00;98193.16;4991132;28;20422;-68
2021/09/12 03:40:32;;;;;;;8.30;7.60;;;;;;;15.17;100.00;98191.47;5000271;28;20911;-68
2021/09/12 03:43:02;;;;;;;8.50;7.87;;;;;;;15.12;100.00;98193.84;4997464;28;20250;-69
2021/09/12 03:45:30;;;;;;;8.87;8.27;;;;;;;15.11;100.00;98188.72;4960454;28;20221;-67
2021/09/12 03:47:58;;;;;;;9.13;8.43;;;;;;;15.11;100.00;98194.03;4993572;28;20745;-69
2021/09/12 03:50:26;;;;;;;8.40;7.73;;;;;;;15.10;100.00;98195.06;5001568;28;20205;-68
2021/09/12 03:52:55;;;;;;;9.00;8.33;;;;;;;15.18;100.00;98192.28;4982248;28;20494;-69
2021/09/12 03:55:23;;;;;;;8.80;7.97;;;;;;;15.24;100.00;98193.38;4995878;28;20213;-68
2021/09/12 03:57:51;;;;;;;9.40;8.70;;;;;;;15.18;100.00;98189.59;4994883;28;20761;-68
2021/09/12 04:00:20;;;;;;;9.30;8.50;;;;;;;15.15;100.00;98187.31;4997657;28;20211;-69
2021/09/12 04:02:48;;;;;;;8.97;8.20;;;;;;;15.15;100.00;98188.16;4956860;28;20529;-68
2021/09/12 04:05:17;;;;;;;9.13;8.20;;;;;;;15.19;100.00;98183.25;4994673;28;20207;-69
2021/09/12 04:07:45;;;;;;;9.03;8.33;;;;;;;15.17;100.00;98186.13;4981801;28;20233;-67
2021/09/12 04:10:13;;;;;;;8.73;7.93;;;;;;;15.14;100.00;98186.47;5000219;28;20398;-69
2021/09/12 04:12:41;;;;;;;8.30;7.70;;;;;;;15.05;100.00;98182.28;4996095;28;20208;-67
2021/09/12 04:15:09;;;;;;;9.37;8.53;;;;;;;14.96;100.00;98188.75;4983437;28;20220;-67
2021/09/12 04:17:38;;;;;;;8.73;7.87;;;;;;;14.86;100.00;98197.88;4958675;28;20236;-68
2021/09/12 04:20:08;;;;;;;9.07;8.37;;;;;;;14.78;100.00;98189.16;4994353;28;20208;-67
2021/09/12 04:22:37;;;;;;;8.70;8.00;;;;;;;14.69;100.00;98196.38;4985134;28;20224;-69
2021/09/12 04:25:05;;;;;;;8.87;8.17;;;;;;;14.60;100.00;98198.34;4977255;28;20233;-68
2021/09/12 04:27:33;;;;;;;8.10;7.50;;;;;;;14.56;100.00;98192.53;4976385;28;20236;-68
2021/09/12 04:30:01;;;;;;;14.17;8.00;;;;;;;14.49;100.00;98196.97;4982306;28;20629;-69
2021/09/12 04:32:30;;;;;;;9.17;8.47;;;;;;;14.55;100.00;98201.56;4956782;28;20605;-68
2021/09/12 04:34:59;;;;;;;8.87;8.10;;;;;;;14.46;100.00;98200.00;4992603;28;20212;-68
2021/09/12 04:37:27;;;;;;;8.67;7.97;;;;;;;14.38;100.00;98206.25;4984317;28;20240;-68
2021/09/12 04:39:55;;;;;;;8.90;8.20;;;;;;;14.30;100.00;98199.16;4994267;28;20809;-69
2021/09/12 04:42:23;;;;;;;8.57;7.67;;;;;;;14.30;100.00;98207.16;4994831;28;20232;-69
2021/09/12 04:44:51;;;;;;;9.37;8.47;;;;;;;14.22;100.00;98204.56;4994339;28;20366;-70
2021/09/12 04:47:19;;;;;;;9.43;8.63;;;;;;;14.19;100.00;98204.94;4943968;28;20635;-68
2021/09/12 04:49:47;;;;;;;9.53;8.80;;;;;;;14.16;100.00;98207.97;4995244;28;20216;-70
2021/09/12 04:52:16;;;;;;;8.67;7.97;;;;;;;14.12;100.00;98215.47;4983149;28;20224;-70
2021/09/12 04:54:44;;;;;;;9.57;8.87;;;;;;;14.10;100.00;98214.84;4999800;28;20549;-72
2021/09/12 04:57:12;;;;;;;10.13;9.23;;;;;;;14.12;100.00;98212.81;4991978;28;20654;-70
2021/09/12 04:59:40;;;;;;;10.37;9.50;;;;;;;14.10;100.00;98214.84;4999792;28;20205;-71
2021/09/12 05:02:08;;;;;;;9.53;8.83;;;;;;;14.10;100.00;98217.50;4958314;28;20677;-68
2021/09/12 05:04:37;;;;;;;8.67;7.83;;;;;;;14.14;100.00;98221.47;4973552;28;20506;-68
2021/09/12 05:07:05;;;;;;;8.57;7.87;;;;;;;14.11;100.00;98221.00;4996810;28;20633;-68
2021/09/12 05:09:35;;;;;;;9.40;8.40;;;;;;;14.04;100.00;98219.06;4964647;28;20835;-68
2021/09/12 05:12:03;;;;;;;9.77;8.93;;;;;;;14.11;100.00;98221.00;4999626;28;20688;-68
2021/09/12 05:14:31;;;;;;;9.83;8.93;;;;;;;14.03;100.00;98222.75;4993528;28;20209;-70
2021/09/12 05:16:59;;;;;;;8.67;8.07;;;;;;;14.03;100.00;98228.09;4999215;28;20633;-70
2021/09/12 05:19:27;;;;;;;8.77;8.17;;;;;;;14.01;100.00;98226.59;4933958;28;20526;-69
2021/09/12 05:21:55;;;;;;;8.93;8.23;;;;;;;14.04;100.00;98224.41;4992476;28;20204;-69
2021/09/12 05:24:23;;;;;;;8.77;8.07;;;;;;;14.18;100.00;98232.59;4969886;28;20775;-70
2021/09/12 05:26:52;;;;;;;8.77;8.07;;;;;;;14.18;100.00;98225.41;4994141;28;20279;-69
2021/09/12 05:29:23;;;;;;;9.40;8.50;;;;;;;14.25;100.00;98224.72;4992714;28;20422;-68
2021/09/12 05:31:51;;;;;;;9.30;8.50;;;;;;;14.19;100.00;98226.25;4996218;28;20204;-70
2021/09/12 05:34:19;;;;;;;8.83;8.10;;;;;;;14.17;100.00;98222.94;4960756;28;20248;-69
2021/09/12 05:36:47;;;;;;;8.73;8.03;;;;;;;14.24;100.00;98226.53;4960519;28;20991;-69
2021/09/12 05:39:15;;;;;;;8.87;8.17;;;;;;;14.30;100.00;98227.66;4995957;28;20426;-70
2021/09/12 05:41:43;;;;;;;9.50;8.70;;;;;;;14.42;100.00;98236.84;4996287;28;20204;-70
2021/09/12 05:44:12;;;;;;;8.90;8.07;;;;;;;14.54;100.00;98239.06;4991769;28;20235;-69
2021/09/12 05:46:40;;;;;;;8.60;8.00;;;;;;;14.61;100.00;98237.34;4998154;28;20213;-68
2021/09/12 05:49:08;;;;;;;8.67;8.03;;;;;;;14.68;100.00;98240.06;4986801;28;20209;-69
2021/09/12 05:51:36;;;;;;;8.13;7.53;;;;;;;14.83;100.00;98238.28;4964770;28;20212;-68
2021/09/12 05:54:04;;;;;;;9.03;8.27;;;;;;;15.04;100.00;98237.50;4997675;28;20204;-70
2021/09/12 05:56:32;;;;;;;8.67;7.97;;;;;;;15.21;100.00;98241.81;4997538;28;20204;-69
2021/09/12 05:59:00;;;;;;;9.00;8.20;;;;;;;15.15;100.00;98244.22;4992194;28;20773;-69
2021/09/12 06:01:30;;;;;;;8.97;8.27;;;;;;;15.15;100.00;98252.22;4998241;28;20570;-68
2021/09/12 06:03:58;;;;;;;8.87;8.17;;;;;;;15.25;100.00;98246.56;4982981;28;20220;-69
2021/09/12 06:06:27;;;;;;;7.63;7.13;;;;;;;15.24;100.00;98249.44;4982309;28;20205;-68
2021/09/12 06:08:55;;;;;;;7.33;6.70;;;;;;;15.41;100.00;98244.69;4975871;28;20699;-69
2021/09/12 06:11:23;;;;;;;8.13;7.63;;;;;;;15.31;100.00;98240.47;4994006;28;20220;-69
2021/09/12 06:13:51;;;;;;;8.70;7.80;;;;;;;15.33;100.00;98254.44;4991842;28;20825;-69
2021/09/12 06:16:19;;;;;;;8.73;8.03;;;;;;;15.31;100.00;98253.00;4984161;28;20200;-67
2021/09/12 06:18:48;;;;;;;8.07;7.47;;;;;;;15.48;100.00;98250.94;4999943;28;20252;-69
2021/09/12 06:21:16;;;;;;;8.33;7.73;;;;;;;15.60;100.00;98253.94;4984093;28;20637;-70
2021/09/12 06:23:45;;;;;;;10.50;9.60;;;;;;;15.65;100.00;98246.16;4965051;28;20224;-68
2021/09/12 06:26:13;;;;;;;11.17;10.00;;;;;;;15.86;100.00;98249.84;4994714;28;20229;-68
2021/09/12 06:28:41;;;;;;;10.33;9.43;;;;;;;15.77;100.00;98249.97;4997118;28;20232;-69
2021/09/12 06:31:09;;;;;;;10.53;9.63;;;;;;;15.89;100.00;98254.81;4984804;28;20849;-67
2021/09/12 06:33:37;;;;;;;12.13;11.10;;;;;;;15.88;100.00;98247.81;4998652;28;20566;-69
2021/09/12 06:36:06;;;;;;;13.83;12.50;;;;;;;15.88;100.00;98246.00;4987908;28;20217;-68
2021/09/12 06:38:35;;;;;;;13.47;11.03;;;;;;;16.15;100.00;98246.22;4963658;28;20302;-68
2021/09/12 06:41:03;;;;;;;13.83;12.43;;;;;;;16.13;100.00;98247.44;4996752;28;20216;-69
2021/09/12 06:43:31;;;;;;;14.03;12.73;;;;;;;16.28;100.00;98244.66;4995423;28;20875;-69
2021/09/12 06:45:59;;;;;;;13.30;12.00;;;;;;;16.23;100.00;98239.06;4998530;28;20759;-70
2021/09/12 06:48:28;;;;;;;14.87;13.37;;;;;;;16.27;100.00;98243.81;4995708;28;20399;-71
2021/09/12 06:50:57;;;;;;;14.30;12.90;;;;;;;16.29;100.00;98239.13;4988340;28;20209;-71
2021/09/12 06:53:26;;;;;;;15.50;13.73;;;;;;;16.18;100.00;98239.66;4961844;28;20213;-69
2021/09/12 06:55:54;;;;;;;13.70;12.47;;;;;;;16.17;100.00;98246.84;4998019;28;20201;-69
2021/09/12 06:58:22;;;;;;;14.63;13.17;;;;;;;16.17;100.00;98251.38;5002021;28;20239;-69
2021/09/12 07:00:50;;;;;;;15.03;13.53;;;;;;;16.10;100.00;98247.81;5001362;28;20213;-69
2021/09/12 07:03:18;;;;;;;16.57;14.83;;;;;;;16.16;100.00;98253.22;4994390;28;20291;-69
2021/09/12 07:05:47;;;;;;;16.33;14.37;;;;;;;15.90;100.00;98260.00;4996762;28;20267;-70
2021/09/12 07:08:15;;;;;;;16.13;14.43;;;;;;;15.90;100.00;98254.66;4963554;28;20589;-70
2021/09/12 07:10:44;;;;;;;15.10;13.50;;;;;;;15.84;100.00;98250.03;4975036;28;20216;-69
2021/09/12 07:13:12;;;;;;;14.00;12.50;;;;;;;15.94;100.00;98256.94;4981026;28;20217;-70
2021/09/12 07:15:40;;;;;;;15.13;13.57;;;;;;;15.89;100.00;98261.00;4985311;28;20609;-69
2021/09/12 07:18:08;;;;;;;16.60;13.27;;;;;;;15.99;100.00;98260.69;4994980;28;20327;-69
2021/09/12 07:20:36;;;;;;;14.53;13.10;;;;;;;15.92;100.00;98262.50;4994739;28;20267;-69
2021/09/12 07:23:04;;;;;;;16.37;13.60;;;;;;;15.91;100.00;98261.66;4982535;28;20890;-69
2021/09/12 07:25:32;;;;;;;14.43;12.93;;;;;;;16.04;100.00;98268.13;4965282;28;20643;-71
2021/09/12 07:28:02;;;;;;;14.37;12.87;;;;;;;15.94;100.00;98268.47;4985675;28;20455;-69
2021/09/12 07:30:30;;;;;;;16.03;14.27;;;;;;;15.75;100.00;98267.22;4986350;28;20209;-69
2021/09/12 07:32:58;;;;;;;16.00;12.80;;;;;;;15.88;100.00;98277.22;4979487;28;20724;-69
2021/09/12 07:35:26;;;;;;;15.13;13.57;;;;;;;15.92;100.00;98278.53;4996816;28;20601;-70
2021/09/12 07:37:53;;;;;;;14.27;12.83;;;;;;;16.02;100.00;98278.19;4982194;28;20609;-70
2021/09/12 07:40:21;;;;;;;16.70;14.47;;;;;;;16.01;100.00;98277.38;4968366;28;20213;-68
2021/09/12 07:42:49;;;;;;;14.77;13.27;;;;;;;16.04;100.00;98276.13;4991414;28;20204;-68
2021/09/12 07:45:20;;;;;;;16.33;13.73;;;;;;;15.97;100.00;98275.25;5003105;28;20839;-70
2021/09/12 07:47:48;;;;;;;16.67;12.90;;;;;;;16.05;100.00;98278.63;4955969;28;20517;-68
2021/09/12 07:50:16;;;;;;;17.73;13.73;;;;;;;16.17;100.00;98280.78;4997042;28;20212;-69
2021/09/12 07:52:44;;;;;;;17.97;14.93;;;;;;;16.32;100.00;98286.03;4985881;28;21006;-69
2021/09/12 07:55:13;;;;;;;18.00;14.90;;;;;;;16.27;100.00;98283.13;4996920;28;20252;-67
2021/09/12 07:57:41;;;;;;;15.83;13.30;;;;;;;16.52;100.00;98293.41;4991678;28;20434;-69
2021/09/12 08:00:11;;;;;;;15.27;13.47;;;;;;;16.55;100.00;98288.47;4998011;28;20739;-68
2021/09/12 08:02:41;;;;;;;14.63;13.13;;;;;;;16.57;100.00;98293.63;4948298;28;20328;-68
2021/09/12 08:05:11;;;;;;;15.23;13.43;;;;;;;16.66;100.00;98294.28;4995377;28;20886;-70
2021/09/12 08:07:39;;;;;;;16.20;13.63;;;;;;;16.50;100.00;98301.59;4988516;28;20243;-69
2021/09/12 08:10:07;;;;;;;14.67;12.73;;;;;;;16.42;100.00;98301.75;4985050;28;20213;-70
2021/09/12 08:12:35;;;;;;;14.00;12.60;;;;;;;16.41;100.00;98300.09;5002891;28;20209;-70
2021/09/12 08:15:03;;;;;;;14.53;13.13;;;;;;;16.53;100.00;98303.06;4994981;28;20554;-68
2021/09/12 08:17:31;;;;;;;15.50;13.90;;;;;;;16.74;100.00;98308.34;4953132;28;20221;-68
2021/09/12 08:20:01;;;;;;;15.33;13.70;;;;;;;16.65;100.00;98317.56;4991083;28;20209;-71
2021/09/12 08:22:29;;;;;;;17.30;13.63;;;;;;;16.64;100.00;98315.91;4984069;28;20295;-73
2021/09/12 08:24:57;;;;;;;13.77;12.33;;;;;;;16.59;100.00;98319.16;4972061;28;20216;-69
2021/09/12 08:27:25;;;;;;;16.60;13.77;;;;;;;16.46;100.00;98327.91;5004802;28;20232;-71
2021/09/12 08:29:53;;;;;;;13.90;12.40;;;;;;;16.53;100.00;98316.44;4995452;28;20201;-71
2021/09/12 08:32:21;;;;;;;13.73;12.17;;;;;;;16.54;100.00;98321.59;4969228;28;20220;-70
2021/09/12 08:34:49;;;;;;;13.53;12.20;;;;;;;16.60;100.00;98323.47;4997578;28;20211;-71
2021/09/12 08:37:19;;;;;;;12.07;10.87;;;;;;;16.62;100.00;98320.63;4994983;28;20726;-70
2021/09/12 08:39:48;;;;;;;13.90;12.30;;;;;;;16.63;100.00;98328.44;4979281;28;21693;-71
2021/09/12 08:42:20;;;;;;;12.87;11.37;;;;;;;16.81;100.00;98323.63;4990318;28;20434;-71
2021/09/12 08:44:50;;;;;;;13.63;12.23;;;;;;;16.83;100.00;98324.25;4995977;28;20212;-73
2021/09/12 08:47:18;;;;;;;13.57;12.17;;;;;;;17.09;100.00;98333.50;4962932;28;20237;-70
2021/09/12 08:49:46;;;;;;;12.63;11.33;;;;;;;17.18;100.00;98334.97;4994179;28;20665;-70
2021/09/12 08:52:15;;;;;;;12.73;11.53;;;;;;;17.05;100.00;98339.25;4984578;28;20205;-70
2021/09/12 08:54:44;;;;;;;10.73;9.53;;;;;;;17.01;100.00;98335.31;4971178;28;20217;-70
2021/09/12 08:57:12;;;;;;;11.87;10.67;;;;;;;16.94;100.00;98339.78;4984012;28;20228;-71
2021/09/12 08:59:40;;;;;;;12.07;10.87;;;;;;;16.84;100.00;98333.91;4991539;28;20205;-70
2021/09/12 09:02:09;;;;;;;12.53;11.23;;;;;;;16.90;100.00;98341.19;4994541;28;20205;-70
2021/09/12 09:04:38;;;;;;;10.50;9.53;;;;;;;17.14;100.00;98337.25;4964487;28;20209;-69
2021/09/12 09:07:08;;;;;;;11.90;10.80;;;;;;;17.25;100.00;98325.16;4983915;28;20263;-70
2021/09/12 09:09:46;;;;;;;11.53;9.90;;;;;;;17.41;100.00;98326.63;4975200;28;20208;-70
2021/09/12 09:12:24;;;;;;;11.23;10.33;;;;;;;17.10;100.00;98340.50;4989177;28;20242;-70
2021/09/12 09:15:08;;;;;;;10.77;9.63;;;;;;;17.31;100.00;98335.06;4977397;28;21354;-70
2021/09/12 09:17:39;;;;;;;11.47;10.37;;;;;;;17.60;100.00;98330.41;4980073;28;20542;-70
2021/09/12 09:20:09;;;;;;;10.37;9.43;;;;;;;17.35;100.00;98314.03;4982809;28;20208;-71
2021/09/12 09:22:38;;;;;;;10.53;9.47;;;;;;;17.53;100.00;98315.34;4976902;28;20507;-69
2021/09/12 09:25:13;;;;;;;10.57;9.60;;;;;;;17.77;100.00;98312.09;4977520;28;20217;-68
2021/09/12 09:28:06;;;;;;;11.57;9.90;;;;;;;17.47;100.00;98312.44;4985549;28;20770;-70
2021/09/12 09:30:37;;;;;;;10.43;9.33;;;;;;;17.58;100.00;98308.34;4984457;28;20247;-70
2021/09/12 09:33:16;;;;;;;9.90;9.00;;;;;;;17.74;100.00;98309.03;4996268;28;20213;-71
2021/09/12 09:36:01;;;;;;;9.53;8.70;;;;;;;17.93;100.00;98310.91;4964905;28;20220;-70
2021/09/12 09:38:31;;;;;;;8.87;8.07;;;;;;;18.01;100.00;98307.22;4985218;28;20229;-70
2021/09/12 09:41:06;;;;;;;9.27;8.47;;;;;;;18.10;100.00;98305.19;4983133;28;20221;-69
2021/09/12 09:43:43;;;;;;;9.60;8.80;;;;;;;18.11;100.00;98303.31;4970398;28;20724;-69
2021/09/12 09:46:31;;;;;;;9.73;8.93;;;;;;;17.97;100.00;98299.75;4984676;28;20693;-69
2021/09/12 09:49:02;;;;;;;8.87;8.07;;;;;;;18.25;100.00;98299.63;4975128;28;20220;-69
2021/09/12 09:51:30;;;;;;;8.97;8.13;;;;;;;18.36;100.00;98298.16;4974639;28;20298;-70
2021/09/12 09:53:59;;;;;;;8.97;8.17;;;;;;;18.36;100.00;98301.69;4965968;28;20227;-68
2021/09/12 09:56:30;;;;;;;9.00;8.20;;;;;;;18.33;100.00;98299.41;4988356;28;20216;-68
2021/09/12 09:58:59;;;;;;;9.30;8.40;;;;;;;18.35;100.00;98299.19;4984879;28;20744;-69
2021/09/12 10:01:28;;;;;;;8.40;7.50;;;;;;;18.37;100.00;98300.66;4992288;28;20220;-68
2021/09/12 10:03:56;;;;;;;7.80;7.23;;;;;;;19.03;100.00;98302.63;4994238;28;20549;-69
2021/09/12 10:06:25;;;;;;;8.90;8.20;;;;;;;18.99;100.00;98291.47;4996635;28;20300;-69
2021/09/12 10:08:53;;;;;;;8.03;7.43;;;;;;;19.00;100.00;98292.31;4966612;28;20802;-69
2021/09/12 10:11:21;;;;;;;7.73;7.07;;;;;;;19.21;100.00;98292.03;5002189;28;20209;-69
2021/09/12 10:13:51;;;;;;;7.57;6.87;;;;;;;19.39;100.00;98279.78;4988821;28;20653;-68
2021/09/12 10:16:20;;;;;;;8.67;7.87;;;;;;;19.45;100.00;98272.69;4990698;28;20708;-68
2021/09/12 10:18:48;;;;;;;9.83;8.93;;;;;;;19.45;100.00;98281.59;4999111;28;20286;-67
2021/09/12 10:21:24;;;;;;;8.33;7.53;;;;;;;19.46;100.00;98277.03;5002994;28;20212;-69
2021/09/12 10:24:05;;;;;;;7.63;6.87;;;;;;;19.21;100.00;98275.09;4966996;28;20304;-69
2021/09/12 10:26:37;;;;;;;7.63;7.03;;;;;;;19.15;100.00;98281.31;4996532;28;20205;-69
2021/09/12 10:29:44;;;;;;;7.43;6.70;;;;;;;19.66;100.00;98277.75;4997110;28;20223;-69
2021/09/12 10:32:32;;;;;;;7.30;6.70;;;;;;;19.95;100.00;98272.00;4992509;28;20224;-69
2021/09/12 10:35:16;;;;;;;7.33;6.63;;;;;;;19.64;100.00;98279.84;4996610;28;20640;-69
2021/09/12 10:37:59;;;;;;;7.13;6.53;;;;;;;19.87;100.00;98274.94;4992746;28;20237;-68
2021/09/12 10:41:06;;;;;;;6.67;6.17;;;;;;;20.67;100.00;98278.84;4971248;28;20232;-70
2021/09/12 10:43:41;;;;;;;7.90;7.10;;;;;;;21.25;100.00;98279.47;4994416;28;20738;-70
2021/09/12 10:46:32;;;;;;;6.27;5.77;;;;;;;21.47;100.00;98281.69;4995746;28;20208;-69
2021/09/12 10:49:14;;;;;;;7.23;5.90;;;;;;;21.52;100.00;98274.53;4991069;28;20307;-69
2021/09/12 10:51:43;;;;;;;6.33;5.83;;;;;;;22.38;100.00;98269.94;4997115;28;20217;-69
2021/09/12 10:54:11;;;;;;;6.33;5.83;;;;;;;22.58;100.00;98266.13;4969364;28;20221;-67
2021/09/12 10:56:40;;;;;;;6.50;6.00;;;;;;;21.85;100.00;98263.53;4994403;28;20667;-69
2021/09/12 10:59:14;;;;;;;6.17;5.70;;;;;;;21.87;100.00;98264.97;4990320;28;20568;-69
2021/09/12 11:01:45;;;;;;;6.50;5.93;;;;;;;22.12;100.00;98261.25;5002162;28;20201;-71
2021/09/12 11:04:15;;;;;;;7.60;6.27;;;;;;;21.95;100.00;98267.31;4975013;28;20213;-70
2021/09/12 11:06:44;;;;;;;6.53;6.03;;;;;;;22.03;100.00;98262.63;4997270;28;20216;-69
2021/09/12 11:09:21;;;;;;;6.60;6.00;;;;;;;21.56;100.00;98258.75;4985248;28;20223;-70
2021/09/12 11:11:50;;;;;;;5.90;5.50;;;;;;;21.53;100.00;98260.00;4960478;28;20364;-69
2021/09/12 11:14:19;;;;;;;5.50;5.10;;;;;;;21.65;100.00;98252.00;4995456;28;20213;-69
2021/09/12 11:16:49;;;;;;;5.67;5.20;;;;;;;22.77;100.00;98248.69;4979964;28;20328;-67
2021/09/12 11:19:17;;;;;;;5.70;5.20;;;;;;;22.76;100.00;98252.47;4986255;28;20208;-68
2021/09/12 11:21:46;;;;;;;5.43;5.03;;;;;;;22.48;100.00;98248.59;4991922;28;20208;-67
2021/09/12 11:24:15;;;;;;;4.53;4.23;;;;;;;22.52;100.00;98240.88;4999187;28;20216;-67
2021/09/12 11:26:45;;;;;;;5.70;5.20;;;;;;;21.83;100.00;98242.22;4959835;28;20212;-66
2021/09/12 11:29:15;;;;;;;5.37;4.97;;;;;;;21.33;100.00;98238.72;4996143;28;20250;-68